createdAt,value
2018-05-10T00:00:44.111Z,58.10
2018-05-10T00:03:14.547Z,59.10
2018-05-10T00:05:44.431Z,58.50
2018-05-10T00:08:14.179Z,59.10
2018-05-10T00:10:44.168Z,59.80
2018-05-10T00:13:13.940Z,59.80
2018-05-10T00:15:44.408Z,60.40
2018-05-10T00:18:14.177Z,60.40
2018-05-10T00:20:44.650Z,59.70
2018-05-10T00:23:14.446Z,59.80
2018-05-10T00:25:44.171Z,58.40
2018-05-10T00:28:14.767Z,59.70
2018-05-10T00:30:45.256Z,56.70
2018-05-10T00:33:15.040Z,56.70
2018-05-10T00:35:44.756Z,56.00
2018-05-10T00:38:14.536Z,58.10
2018-05-10T00:40:45.050Z,57.20
2018-05-10T00:43:14.782Z,57.10
2018-05-10T00:45:45.308Z,56.20
2018-05-10T00:48:15.061Z,56.00
2018-05-10T00:50:44.827Z,55.50
2018-05-10T00:53:14.585Z,57.40
2018-05-10T00:55:44.328Z,59.30
2018-05-10T00:58:14.064Z,59.30
2018-05-10T01:00:43.836Z,59.30
2018-05-10T01:03:13.580Z,57.30
2018-05-10T01:05:44.044Z,58.90
2018-05-10T01:08:13.836Z,58.90
2018-05-10T01:10:44.447Z,57.90
2018-05-10T01:13:14.282Z,57.90
2018-05-10T01:15:44.070Z,57.70
2018-05-10T01:18:13.800Z,56.40
2018-05-10T01:20:44.618Z,50.20
2018-05-10T01:23:15.274Z,50.20
2018-05-10T01:25:52.877Z,50.10
2018-05-10T01:28:35.623Z,46.10
2018-05-10T01:31:20.611Z,45.40
2018-05-10T01:33:50.344Z,47.40
2018-05-10T01:36:20.828Z,45.50
2018-05-10T01:38:50.552Z,44.80
2018-05-10T01:41:20.247Z,46.90
2018-05-10T01:43:50.041Z,50.60
2018-05-10T01:46:19.785Z,51.30
2018-05-10T01:48:49.796Z,53.90
2018-05-10T01:51:19.542Z,56.00
2018-05-10T01:53:49.346Z,57.60
2018-05-10T01:56:20.616Z,58.00
2018-05-10T01:58:50.358Z,58.30
2018-05-10T02:01:20.011Z,58.40
2018-05-10T02:03:49.834Z,60.10
2018-05-10T02:06:19.624Z,59.40
2018-05-10T02:08:49.432Z,61.80
2018-05-10T02:11:19.216Z,60.60
2018-05-10T02:13:49.007Z,59.20
2018-05-10T02:16:19.454Z,61.30
2018-05-10T02:18:49.205Z,62.10
2018-05-10T02:21:19.711Z,62.00
2018-05-10T02:23:56.418Z,61.70
2018-05-10T02:26:38.643Z,63.30
2018-05-10T02:29:08.629Z,62.70
2018-05-10T02:31:39.035Z,63.20
2018-05-10T02:34:08.880Z,63.50
2018-05-10T02:36:39.148Z,65.20
2018-05-10T02:39:09.439Z,64.60
2018-05-10T02:41:39.867Z,64.40
2018-05-10T02:44:10.830Z,65.30
2018-05-10T02:46:40.564Z,65.40
2018-05-10T02:49:10.310Z,66.00
2018-05-10T02:51:40.165Z,67.60
2018-05-10T02:54:10.710Z,67.80
2018-05-10T02:56:40.478Z,67.80
2018-05-10T02:59:10.476Z,68.00
2018-05-10T03:01:40.353Z,68.10
2018-05-10T03:04:10.072Z,69.20
2018-05-10T03:06:39.845Z,70.60
2018-05-10T03:09:10.357Z,71.40
2018-05-10T03:11:40.994Z,71.00
2018-05-10T03:14:10.823Z,71.00
2018-05-10T03:16:41.342Z,71.80
2018-05-10T03:19:11.896Z,72.30
2018-05-10T03:21:41.877Z,72.30
2018-05-10T03:24:11.751Z,73.80
2018-05-10T03:26:41.555Z,73.60
2018-05-10T03:29:11.445Z,73.20
2018-05-10T03:31:41.175Z,74.30
2018-05-10T03:34:10.908Z,72.30
2018-05-10T03:36:40.783Z,73.70
2018-05-10T03:39:10.506Z,74.90
2018-05-10T03:41:40.271Z,74.40
2018-05-10T03:44:17.865Z,75.40
2018-05-10T03:46:56.219Z,75.90
2018-05-10T03:49:26.717Z,77.60
2018-05-10T03:51:56.715Z,75.90
2018-05-10T03:54:26.478Z,76.60
2018-05-10T03:56:57.049Z,76.30
2018-05-10T03:59:26.826Z,75.90
2018-05-10T04:01:57.501Z,76.30
2018-05-10T04:04:38.487Z,74.80
2018-05-10T04:07:19.532Z,74.40
2018-05-10T04:10:01.261Z,74.80
2018-05-10T04:12:32.079Z,75.70
2018-05-10T04:15:02.010Z,75.60
2018-05-10T04:17:31.753Z,76.90
2018-05-10T04:20:02.337Z,77.60
2018-05-10T04:22:32.226Z,77.50
2018-05-10T04:25:02.019Z,76.00
2018-05-10T04:27:31.965Z,76.50
2018-05-10T04:30:01.805Z,77.50
2018-05-10T04:32:31.651Z,77.10
2018-05-10T04:35:01.726Z,77.30
2018-05-10T04:37:31.614Z,77.20
2018-05-10T04:40:01.379Z,77.50
2018-05-10T04:42:32.363Z,77.90
2018-05-10T04:45:02.343Z,77.90
2018-05-10T04:47:32.992Z,77.90
2018-05-10T04:50:03.462Z,78.00
2018-05-10T04:52:33.503Z,78.00
2018-05-10T04:55:03.200Z,78.30
2018-05-10T04:57:35.575Z,79.80
2018-05-10T05:00:06.947Z,78.60
2018-05-10T05:02:38.338Z,77.80
2018-05-10T05:05:08.114Z,77.80
2018-05-10T05:07:37.929Z,76.60
2018-05-10T05:10:08.458Z,77.00
2018-05-10T05:12:39.071Z,76.80
2018-05-10T05:15:08.758Z,76.60
2018-05-10T05:17:38.529Z,77.00
2018-05-10T05:20:08.296Z,77.40
2018-05-10T05:22:38.076Z,79.00
2018-05-10T05:25:07.845Z,78.80
2018-05-10T05:27:37.545Z,79.00
2018-05-10T05:30:07.156Z,80.70
2018-05-10T05:32:36.855Z,78.60
2018-05-10T05:35:06.527Z,80.20
2018-05-10T05:37:36.240Z,79.60
2018-05-10T05:40:06.045Z,79.40
2018-05-10T05:42:35.722Z,78.60
2018-05-10T05:45:06.239Z,79.60
2018-05-10T05:47:35.926Z,79.50
2018-05-10T05:50:05.680Z,79.90
2018-05-10T05:55:09.410Z,80.40
2018-05-10T05:57:39.956Z,80.40
2018-05-10T06:00:09.546Z,80.30
2018-05-10T06:02:39.315Z,80.30
2018-05-10T06:05:08.899Z,81.00
2018-05-10T06:07:38.550Z,80.80
2018-05-10T06:10:08.209Z,80.20
2018-05-10T06:12:38.110Z,81.40
2018-05-10T06:15:07.751Z,81.30
2018-05-10T06:17:37.508Z,81.80
2018-05-10T06:20:07.161Z,80.80
2018-05-10T06:22:36.911Z,80.30
2018-05-10T06:25:06.584Z,80.70
2018-05-10T06:27:36.304Z,81.00
2018-05-10T06:30:05.980Z,80.70
2018-05-10T06:32:35.827Z,80.70
2018-05-10T06:35:06.454Z,82.00
2018-05-10T06:37:36.217Z,81.20
2018-05-10T06:40:05.975Z,81.70
2018-05-10T06:42:35.825Z,81.50
2018-05-10T06:45:05.624Z,81.50
2018-05-10T06:47:35.380Z,80.30
2018-05-10T06:50:05.117Z,81.20
2018-05-10T06:52:34.946Z,80.10
2018-05-10T06:55:04.756Z,80.00
2018-05-10T06:57:34.457Z,80.00
2018-05-10T07:00:04.160Z,79.20
2018-05-10T07:02:34.116Z,79.50
2018-05-10T07:05:05.519Z,80.10
2018-05-10T07:07:35.242Z,80.70
2018-05-10T07:10:04.992Z,80.20
2018-05-10T07:12:34.703Z,79.60
2018-05-10T07:15:05.333Z,80.20
2018-05-10T07:17:36.088Z,79.50
2018-05-10T07:20:05.942Z,79.70
2018-05-10T07:22:35.699Z,81.00
2018-05-10T07:25:05.406Z,80.60
2018-05-10T07:27:35.307Z,80.10
2018-05-10T07:30:05.078Z,81.10
2018-05-10T07:32:34.851Z,81.90
2018-05-10T07:35:05.395Z,81.70
2018-05-10T07:37:35.147Z,81.60
2018-05-10T07:40:04.887Z,81.10
2018-05-10T07:42:34.656Z,81.50
2018-05-10T07:45:04.408Z,80.90
2018-05-10T07:47:34.168Z,80.40
2018-05-10T07:50:03.927Z,80.80
2018-05-10T07:52:33.666Z,80.20
2018-05-10T07:55:04.101Z,81.20
2018-05-10T07:57:33.899Z,81.30
2018-05-10T08:00:03.634Z,81.70
2018-05-10T08:02:33.330Z,81.90
2018-05-10T08:05:03.085Z,82.30
2018-05-10T08:07:32.893Z,82.80
2018-05-10T08:10:02.707Z,84.10
2018-05-10T08:12:32.506Z,84.10
2018-05-10T08:15:02.291Z,82.90
2018-05-10T08:17:32.122Z,84.30
2018-05-10T08:20:01.851Z,83.20
2018-05-10T08:22:31.662Z,83.90
2018-05-10T08:25:01.427Z,83.70
2018-05-10T08:27:42.241Z,84.30
2018-05-10T08:30:11.973Z,83.90
2018-05-10T08:32:41.945Z,84.70
2018-05-10T08:42:13.612Z,85.40
2018-05-10T08:44:43.219Z,86.10
2018-05-10T08:47:12.892Z,85.20
2018-05-10T08:49:43.235Z,85.60
2018-05-10T08:52:12.911Z,85.60
2018-05-10T08:54:42.575Z,85.20
2018-05-10T08:57:12.227Z,85.80
2018-05-10T08:59:41.829Z,85.30
2018-05-10T09:02:11.527Z,85.60
2018-05-10T09:04:41.211Z,85.80
2018-05-10T09:07:10.763Z,86.60
2018-05-10T09:09:40.373Z,85.80
2018-05-10T09:12:09.981Z,86.10
2018-05-10T09:14:39.641Z,86.60
2018-05-10T09:17:09.228Z,86.40
2018-05-10T09:19:38.876Z,86.20
2018-05-10T09:22:09.381Z,86.90
2018-05-10T09:24:39.152Z,86.80
2018-05-10T09:27:08.899Z,87.60
2018-05-10T09:29:38.604Z,87.10
2018-05-10T09:32:08.314Z,87.70
2018-05-10T09:34:38.096Z,86.90
2018-05-10T09:37:07.819Z,87.20
2018-05-10T09:39:38.274Z,87.30
2018-05-10T09:42:08.031Z,87.30
2018-05-10T09:44:37.777Z,88.20
2018-05-10T09:47:08.293Z,87.20
2018-05-10T09:49:38.027Z,87.20
2018-05-10T09:52:07.782Z,88.70
2018-05-10T09:54:37.565Z,87.70
2018-05-10T09:57:07.312Z,87.20
2018-05-10T09:59:37.127Z,88.00
2018-05-10T10:02:06.876Z,87.80
2018-05-10T10:04:37.361Z,88.00
2018-05-10T10:07:07.087Z,88.00
2018-05-10T10:09:37.613Z,88.10
2018-05-10T10:12:08.126Z,88.70
2018-05-10T10:14:37.932Z,88.60
2018-05-10T10:17:07.805Z,88.90
2018-05-10T10:19:37.679Z,88.80
2018-05-10T10:22:07.385Z,90.00
2018-05-10T10:24:37.315Z,89.50
2018-05-10T10:27:07.080Z,90.20
2018-05-10T10:29:36.919Z,90.10
2018-05-10T10:32:06.676Z,90.00
2018-05-10T10:34:36.439Z,90.20
2018-05-10T10:37:06.233Z,90.40
2018-05-10T10:39:35.999Z,90.60
2018-05-10T10:42:05.809Z,90.70
2018-05-10T10:44:35.591Z,90.80
2018-05-10T10:47:05.301Z,90.70
2018-05-10T10:49:34.962Z,91.40
2018-05-10T10:52:04.672Z,90.80
2018-05-10T10:54:34.387Z,90.60
2018-05-10T10:57:04.219Z,90.40
2018-05-10T10:59:33.915Z,90.30
2018-05-10T11:02:03.651Z,90.10
2018-05-10T11:04:33.363Z,90.30
2018-05-10T11:07:03.070Z,90.30
2018-05-10T11:09:32.846Z,90.40
2018-05-10T11:12:02.554Z,90.30
2018-05-10T11:14:32.286Z,90.10
2018-05-10T11:17:02.033Z,90.40
2018-05-10T11:19:31.961Z,90.50
2018-05-10T11:22:02.503Z,90.70
2018-05-10T11:24:32.337Z,90.70
2018-05-10T11:27:02.059Z,90.50
2018-05-10T11:29:32.967Z,90.50
2018-05-10T11:32:03.500Z,90.50
2018-05-10T11:34:34.156Z,90.30
2018-05-10T11:37:03.873Z,90.20
2018-05-10T11:39:33.605Z,90.90
2018-05-10T11:42:03.379Z,90.40
2018-05-10T11:44:33.272Z,90.60
2018-05-10T11:47:03.176Z,90.10
2018-05-10T11:49:32.966Z,90.20
2018-05-10T11:52:02.749Z,90.30
2018-05-10T11:54:32.497Z,90.20
2018-05-10T11:57:02.454Z,90.70
2018-05-10T11:59:32.230Z,90.30
2018-05-10T12:02:02.002Z,90.30
2018-05-10T12:04:31.741Z,90.40
2018-05-10T12:07:01.549Z,90.40
2018-05-10T12:09:31.343Z,90.80
2018-05-10T12:12:01.046Z,90.40
2018-05-10T12:14:30.734Z,90.50
2018-05-10T12:17:00.473Z,90.50
2018-05-10T12:19:30.227Z,90.70
2018-05-10T12:21:59.991Z,90.80
2018-05-10T12:24:29.650Z,90.70
2018-05-10T12:26:59.365Z,90.70
2018-05-10T12:29:29.898Z,90.80
2018-05-10T12:31:59.699Z,90.70
2018-05-10T12:34:29.493Z,90.60
2018-05-10T12:36:59.279Z,90.70
2018-05-10T12:39:28.997Z,90.70
2018-05-10T12:41:58.850Z,91.00
2018-05-10T12:44:29.392Z,90.90
2018-05-10T12:46:59.915Z,90.70
2018-05-10T12:49:30.395Z,90.90
2018-05-10T12:52:00.121Z,90.80
2018-05-10T12:54:29.903Z,91.20
2018-05-10T12:56:59.626Z,90.70
2018-05-10T12:59:29.423Z,91.00
2018-05-10T13:01:59.969Z,90.90
2018-05-10T13:04:29.725Z,90.90
2018-05-10T13:07:00.323Z,91.10
2018-05-10T13:09:30.063Z,91.20
2018-05-10T13:11:59.797Z,90.90
2018-05-10T13:14:29.547Z,91.10
2018-05-10T13:16:59.280Z,91.30
2018-05-10T13:19:29.485Z,91.20
2018-05-10T13:21:59.280Z,91.20
2018-05-10T13:24:29.069Z,91.30
2018-05-10T13:26:58.817Z,91.30
2018-05-10T13:29:28.496Z,91.70
2018-05-10T13:31:58.208Z,91.70
2018-05-10T13:34:27.984Z,91.90
2018-05-10T13:36:57.748Z,91.80
2018-05-10T13:39:27.438Z,91.60
2018-05-10T13:41:57.264Z,92.00
2018-05-10T13:44:27.045Z,91.90
2018-05-10T13:46:56.884Z,92.00
2018-05-10T13:49:26.723Z,92.40
2018-05-10T13:51:56.634Z,92.40
2018-05-10T13:54:26.405Z,91.80
2018-05-10T13:56:56.140Z,92.30
2018-05-10T13:59:25.855Z,91.80
2018-05-10T14:01:55.785Z,91.90
2018-05-10T14:04:25.727Z,91.80
2018-05-10T14:06:55.561Z,92.00
2018-05-10T14:09:26.006Z,91.90
2018-05-10T14:11:55.788Z,91.90
2018-05-10T14:14:25.549Z,91.70
2018-05-10T14:16:55.294Z,91.70
2018-05-10T14:19:25.076Z,92.20
2018-05-10T14:21:54.959Z,91.70
2018-05-10T14:24:24.732Z,91.10
2018-05-10T14:26:54.555Z,91.10
2018-05-10T14:29:24.370Z,91.20
2018-05-10T14:31:54.901Z,91.10
2018-05-10T14:34:24.600Z,90.80
2018-05-10T14:36:54.308Z,90.60
2018-05-10T14:39:24.039Z,91.20
2018-05-10T14:41:54.075Z,91.00
2018-05-10T14:44:24.608Z,90.30
2018-05-10T14:46:54.272Z,90.30
2018-05-10T14:49:24.129Z,90.30
2018-05-10T14:51:53.947Z,92.00
2018-05-10T14:54:23.787Z,91.40
2018-05-10T14:56:53.620Z,91.30
2018-05-10T14:59:23.420Z,92.10
2018-05-10T15:01:53.275Z,91.70
2018-05-10T15:04:23.923Z,92.20
2018-05-10T15:06:53.661Z,92.20
2018-05-10T15:09:23.363Z,92.50
2018-05-10T15:11:53.038Z,92.00
2018-05-10T15:14:23.523Z,92.70
2018-05-10T15:16:53.242Z,92.60
2018-05-10T15:19:22.978Z,92.80
2018-05-10T15:21:52.772Z,91.70
2018-05-10T15:24:22.546Z,91.90
2018-05-10T15:26:52.264Z,92.30
2018-05-10T15:29:21.984Z,92.30
2018-05-10T15:31:51.794Z,92.60
2018-05-10T15:34:21.571Z,92.60
2018-05-10T15:36:52.077Z,92.50
2018-05-10T15:39:21.890Z,92.50
2018-05-10T15:41:52.455Z,92.80
2018-05-10T15:44:22.188Z,92.80
2018-05-10T15:46:52.003Z,91.90
2018-05-10T15:49:21.768Z,92.30
2018-05-10T15:51:52.326Z,91.20
2018-05-10T15:54:22.079Z,91.20
2018-05-10T15:56:51.776Z,91.70
2018-05-10T15:59:21.587Z,91.30
2018-05-10T16:01:51.771Z,91.60
2018-05-10T16:04:21.543Z,90.10
2018-05-10T16:06:51.282Z,90.40
2018-05-10T16:09:21.009Z,88.10
2018-05-10T16:11:50.746Z,90.30
2018-05-10T16:14:20.524Z,89.20
2018-05-10T16:16:50.211Z,88.90
2018-05-10T16:19:19.961Z,90.00
2018-05-10T16:21:49.793Z,90.30
2018-05-10T16:24:19.750Z,89.40
2018-05-10T16:26:50.267Z,90.40
2018-05-10T16:29:20.745Z,90.10
2018-05-10T16:31:50.491Z,89.80
2018-05-10T16:34:20.219Z,89.60
2018-05-10T16:36:49.914Z,89.20
2018-05-10T16:39:19.690Z,87.20
2018-05-10T16:41:49.497Z,88.10
2018-05-10T16:44:19.246Z,87.80
2018-05-10T16:46:49.117Z,86.80
2018-05-10T16:49:18.905Z,87.10
2018-05-10T16:51:48.665Z,87.30
2018-05-10T16:54:18.360Z,85.50
2018-05-10T16:56:48.035Z,83.30
2018-05-10T16:59:17.948Z,81.40
2018-05-10T17:01:48.405Z,83.10
2018-05-10T17:04:18.131Z,82.90
2018-05-10T17:06:47.894Z,83.20
2018-05-10T17:09:18.436Z,77.80
2018-05-10T17:11:48.974Z,81.20
2018-05-10T17:14:18.748Z,81.30
2018-05-10T17:16:48.430Z,78.40
2018-05-10T17:19:18.175Z,80.10
2018-05-10T17:21:48.111Z,79.70
2018-05-10T17:24:18.227Z,77.80
2018-05-10T17:26:48.767Z,80.90
2018-05-10T17:29:18.525Z,80.90
2018-05-10T17:31:48.328Z,82.10
2018-05-10T17:34:18.071Z,81.60
2018-05-10T17:36:47.783Z,82.70
2018-05-10T17:39:17.612Z,81.70
2018-05-10T17:41:48.246Z,83.90
2018-05-10T17:44:18.126Z,83.20
2018-05-10T17:46:47.923Z,85.10
2018-05-10T17:49:17.740Z,86.50
2018-05-10T17:51:47.458Z,89.40
2018-05-10T17:54:17.186Z,90.10
2018-05-10T17:56:46.999Z,90.00
2018-05-10T17:59:16.687Z,90.70
2018-05-10T18:01:46.433Z,93.30
2018-05-10T18:04:16.410Z,91.30
2018-05-10T18:06:46.125Z,91.00
2018-05-10T18:09:15.872Z,91.90
2018-05-10T18:11:45.612Z,91.00
2018-05-10T18:14:15.303Z,91.20
2018-05-10T18:16:45.063Z,92.70
2018-05-10T18:19:14.739Z,92.80
2018-05-10T18:21:44.484Z,92.80
2018-05-10T18:24:14.205Z,92.20
2018-05-10T18:26:43.932Z,89.80
2018-05-10T18:29:13.668Z,90.40
2018-05-10T18:31:44.230Z,89.10
2018-05-10T18:34:13.950Z,89.00
2018-05-10T18:36:43.714Z,88.40
2018-05-10T18:39:14.174Z,85.60
2018-05-10T18:41:43.917Z,85.70
2018-05-10T18:44:13.659Z,82.20
2018-05-10T18:46:44.151Z,83.60
2018-05-10T18:49:14.550Z,83.50
2018-05-10T18:51:44.284Z,84.60
2018-05-10T18:54:14.111Z,84.50
2018-05-10T18:56:43.810Z,85.70
2018-05-10T18:59:13.504Z,81.40
2018-05-10T19:01:43.151Z,85.10
2018-05-10T19:04:13.028Z,80.70
2018-05-10T19:06:42.752Z,78.70
2018-05-10T19:09:12.591Z,78.10
2018-05-10T19:11:42.340Z,75.80
2018-05-10T19:14:12.044Z,74.90
2018-05-10T19:16:42.555Z,72.80
2018-05-10T19:19:12.340Z,72.80
2018-05-10T19:21:42.132Z,71.30
2018-05-10T19:24:11.872Z,75.90
2018-05-10T19:26:41.677Z,73.30
2018-05-10T19:29:11.398Z,73.30
2018-05-10T19:31:41.226Z,73.40
2018-05-10T19:34:10.974Z,68.30
2018-05-10T19:36:41.556Z,69.60
2018-05-10T19:39:11.274Z,69.60
2018-05-10T19:41:41.057Z,70.10
2018-05-10T19:44:10.774Z,66.80
2018-05-10T19:46:40.568Z,71.00
2018-05-10T19:49:10.511Z,68.60
2018-05-10T19:51:40.319Z,67.30
2018-05-10T19:54:10.041Z,68.80
2018-05-10T19:56:39.758Z,68.40
2018-05-10T19:59:09.582Z,71.00
2018-05-10T20:01:39.305Z,71.70
2018-05-10T20:04:09.003Z,69.90
2018-05-10T20:06:39.511Z,69.40
2018-05-10T20:09:09.276Z,69.50
2018-05-10T20:11:39.271Z,68.30
2018-05-10T20:14:09.032Z,69.00
2018-05-10T20:16:38.897Z,70.00
2018-05-10T20:19:08.667Z,66.60
2018-05-10T20:21:38.464Z,67.90
2018-05-10T20:24:08.337Z,66.50
2018-05-10T20:26:39.032Z,68.00
2018-05-10T20:29:08.804Z,67.90
2018-05-10T20:31:38.596Z,63.10
2018-05-10T20:34:08.291Z,65.20
2018-05-10T20:36:38.101Z,65.30
2018-05-10T20:39:08.671Z,68.10
2018-05-10T20:41:39.205Z,68.20
2018-05-10T20:44:09.151Z,65.80
2018-05-10T20:49:28.961Z,64.80
2018-05-10T20:51:58.693Z,62.30
2018-05-10T20:54:28.453Z,60.40
2018-05-10T20:56:58.226Z,61.40
2018-05-10T20:59:27.967Z,63.10
2018-05-10T21:01:57.783Z,64.10
2018-05-10T21:04:27.500Z,68.00
2018-05-10T21:06:57.195Z,69.70
2018-05-10T21:09:26.974Z,72.90
2018-05-10T21:11:57.496Z,74.30
2018-05-10T21:14:28.017Z,74.90
2018-05-10T21:16:58.543Z,73.90
2018-05-10T21:19:28.276Z,73.80
2018-05-10T21:21:58.027Z,74.20
2018-05-10T21:24:27.821Z,71.10
2018-05-10T21:26:57.620Z,70.50
2018-05-10T21:29:27.329Z,69.10
2018-05-10T21:31:57.077Z,70.70
2018-05-10T21:34:26.795Z,70.80
2018-05-10T21:36:56.614Z,70.30
2018-05-10T21:39:26.393Z,69.90
2018-05-10T21:41:56.132Z,69.50
2018-05-10T21:44:25.937Z,69.20
2018-05-10T21:46:55.675Z,71.10
2018-05-10T21:49:37.363Z,70.80
2018-05-10T21:52:07.936Z,71.10
2018-05-10T21:54:37.718Z,71.10
2018-05-10T21:57:07.521Z,71.60
2018-05-10T21:59:37.226Z,70.60
2018-05-10T22:02:07.115Z,72.00
2018-05-10T22:04:37.072Z,72.90
2018-05-10T22:07:07.041Z,68.60
2018-05-10T22:09:37.015Z,63.90
2018-05-10T22:12:06.739Z,61.90
2018-05-10T22:14:36.490Z,62.70
2018-05-10T22:17:06.235Z,61.40
2018-05-10T22:19:35.977Z,59.20
2018-05-10T22:22:05.721Z,59.60
2018-05-10T22:24:35.553Z,60.60
2018-05-10T22:27:05.390Z,59.50
2018-05-10T22:29:35.152Z,57.90
2018-05-10T22:32:04.818Z,58.00
2018-05-10T22:34:34.559Z,58.00
2018-05-10T22:37:04.223Z,55.20
2018-05-10T22:39:34.736Z,55.20
2018-05-10T22:42:04.561Z,55.20
2018-05-10T22:44:35.183Z,53.30
2018-05-10T22:47:07.558Z,53.30
2018-05-10T22:49:37.220Z,53.70
2018-05-10T22:52:06.899Z,57.30
2018-05-10T22:54:36.596Z,53.40
2018-05-10T22:57:06.339Z,54.70
2018-05-10T22:59:36.967Z,54.70
2018-05-10T23:02:06.733Z,56.50
2018-05-10T23:04:36.456Z,54.40
2018-05-10T23:07:06.168Z,52.90
2018-05-10T23:09:35.958Z,53.50
2018-05-10T23:12:05.667Z,53.20
2018-05-10T23:14:35.354Z,53.10
2018-05-10T23:17:05.092Z,53.50
2018-05-10T23:19:34.753Z,51.10
2018-05-10T23:22:04.440Z,52.00
2018-05-10T23:24:34.131Z,51.90
2018-05-10T23:27:03.835Z,50.60
2018-05-10T23:29:33.600Z,49.10
2018-05-10T23:32:03.331Z,49.60
2018-05-10T23:34:33.088Z,49.90
2018-05-10T23:37:02.833Z,51.00
2018-05-10T23:39:32.543Z,51.00
2018-05-10T23:42:02.251Z,52.00
2018-05-10T23:44:31.953Z,51.50
2018-05-10T23:47:01.616Z,51.60
2018-05-10T23:49:31.326Z,51.70
2018-05-10T23:52:00.992Z,50.30
2018-05-10T23:54:30.829Z,50.80
2018-05-10T23:57:00.489Z,51.60
2018-05-10T23:59:30.232Z,50.80
